createdAt,value
2023-02-27T00:35:10.352Z,51.90
2023-02-27T01:54:11.557Z,54.80
2023-02-27T02:01:36.630Z,54.80
2023-02-27T02:38:43.675Z,57.20
2023-02-27T02:51:45.490Z,57.90
2023-02-27T04:53:49.317Z,60.20
2023-02-27T05:19:32.683Z,59.60
2023-02-27T05:25:06.311Z,62.90
2023-02-27T05:35:34.148Z,62.70
2023-02-27T05:40:51.593Z,69.80
2023-02-27T05:43:27.703Z,61.70
2023-02-27T05:46:02.582Z,62.90
2023-02-27T05:48:35.592Z,63.00
2023-02-27T05:51:03.983Z,60.50
2023-02-27T05:53:35.183Z,60.60
2023-02-27T05:56:05.171Z,61.60
2023-02-27T06:03:34.767Z,60.70
2023-02-27T06:13:26.552Z,77.50
2023-02-27T06:18:21.571Z,78.20
2023-02-27T06:20:49.130Z,78.00
2023-02-27T06:23:16.109Z,66.90
2023-02-27T06:52:45.713Z,67.20
2023-02-27T07:00:08.311Z,78.90
2023-02-27T07:10:08.317Z,61.40
2023-02-27T07:17:29.831Z,68.00
2023-02-27T07:51:51.510Z,72.00
2023-02-27T08:09:03.055Z,59.80
2023-02-27T08:21:27.233Z,73.40
2023-02-27T08:23:54.682Z,73.60
2023-02-27T08:26:22.429Z,56.20
2023-02-27T08:33:43.954Z,72.70
2023-02-27T08:46:00.393Z,66.10
2023-02-27T09:10:37.665Z,66.50
2023-02-27T09:20:31.712Z,64.40
2023-02-27T09:22:59.644Z,49.80
2023-02-27T09:27:54.669Z,61.90
2023-02-27T09:37:44.082Z,60.40
2023-02-27T09:40:20.024Z,41.80
2023-02-27T09:45:25.246Z,40.90
2023-02-27T09:48:05.757Z,38.30
2023-02-27T09:50:42.545Z,39.00
2023-02-27T09:53:16.855Z,39.70
2023-02-27T09:55:45.981Z,53.70
2023-02-27T09:58:37.891Z,36.00
2023-02-27T10:01:14.328Z,35.50
2023-02-27T10:03:47.186Z,35.10
2023-02-27T10:06:49.102Z,48.60
2023-02-27T10:09:36.844Z,34.50
2023-02-27T10:12:12.651Z,32.60
2023-02-27T10:15:11.553Z,30.00
2023-02-27T10:18:19.851Z,30.90
2023-02-27T10:20:57.819Z,49.70
2023-02-27T10:23:56.467Z,30.60
2023-02-27T10:26:27.670Z,30.60
2023-02-27T10:31:31.432Z,29.20
2023-02-27T10:36:34.182Z,37.20
2023-02-27T10:39:08.105Z,44.00
2023-02-27T10:41:38.071Z,27.20
2023-02-27T10:46:36.430Z,41.70
2023-02-27T10:49:20.950Z,41.90
2023-02-27T10:52:05.820Z,24.40
2023-02-27T10:57:06.366Z,23.20
2023-02-27T10:59:38.830Z,39.70
2023-02-27T11:02:17.767Z,40.20
2023-02-27T11:04:55.727Z,27.90
2023-02-27T11:07:33.756Z,24.00
2023-02-27T11:10:05.748Z,25.10
2023-02-27T11:12:34.967Z,24.10
2023-02-27T11:15:22.140Z,21.60
2023-02-27T11:17:49.862Z,21.60
2023-02-27T11:20:39.869Z,24.70
2023-02-27T11:23:21.642Z,18.80
2023-02-27T11:25:49.331Z,18.60
2023-02-27T11:28:26.573Z,15.80
2023-02-27T11:31:03.610Z,31.20
2023-02-27T11:33:38.102Z,29.30
2023-02-27T11:36:05.668Z,14.30
2023-02-27T11:38:32.978Z,29.10
2023-02-27T11:41:02.546Z,15.30
2023-02-27T11:43:50.911Z,13.20
2023-02-27T11:46:46.302Z,12.70
2023-02-27T11:49:26.497Z,12.70
2023-02-27T11:52:02.364Z,27.60
2023-02-27T11:54:55.435Z,13.70
2023-02-27T11:57:33.708Z,15.20
2023-02-27T12:00:03.978Z,17.80
2023-02-27T12:03:13.615Z,13.70
2023-02-27T12:05:53.632Z,20.70
2023-02-27T12:08:43.486Z,12.80
2023-02-27T12:11:51.230Z,10.60
2023-02-27T12:14:42.725Z,21.70
2023-02-27T12:17:18.557Z,22.90
2023-02-27T12:20:20.012Z,9.70
2023-02-27T12:22:49.315Z,23.40
2023-02-27T12:25:39.932Z,9.80
2023-02-27T12:31:10.613Z,7.00
2023-02-27T12:33:40.097Z,7.70
2023-02-27T12:36:13.114Z,7.60
2023-02-27T12:38:40.278Z,20.40
2023-02-27T12:41:27.571Z,21.00
2023-02-27T12:44:08.589Z,18.30
2023-02-27T12:47:08.723Z,17.70
2023-02-27T12:50:02.555Z,10.40
2023-02-27T12:52:44.164Z,5.00
2023-02-27T12:55:22.952Z,6.00
2023-02-27T12:58:25.061Z,5.10
2023-02-27T13:01:06.131Z,6.60
2023-02-27T13:03:44.745Z,6.60
2023-02-27T13:06:37.280Z,6.00
2023-02-27T13:09:15.184Z,3.10
2023-02-27T13:12:13.294Z,17.00
2023-02-27T13:15:14.667Z,5.70
2023-02-27T13:18:01.688Z,6.20
2023-02-27T13:20:43.021Z,7.70
2023-02-27T13:23:33.286Z,6.70
2023-02-27T13:28:30.227Z,8.20
2023-02-27T13:33:32.348Z,19.70
2023-02-27T13:36:35.612Z,5.40
2023-02-27T13:44:21.376Z,3.60
2023-02-27T13:46:48.570Z,5.40
2023-02-27T13:51:56.675Z,9.60
2023-02-27T13:54:27.283Z,7.00
2023-02-27T13:56:59.856Z,20.60
2023-02-27T13:59:43.496Z,8.70
2023-02-27T14:04:42.979Z,25.10
2023-02-27T14:07:15.414Z,12.50
2023-02-27T14:09:46.294Z,10.40
2023-02-27T14:12:42.624Z,6.10
2023-02-27T14:17:41.372Z,5.70
2023-02-27T14:20:31.096Z,2.70
2023-02-27T14:23:16.103Z,2.60
2023-02-27T14:25:49.836Z,3.20
2023-02-27T14:28:23.816Z,3.10
2023-02-27T14:31:01.528Z,3.60
2023-02-27T14:33:41.691Z,17.30
2023-02-27T14:36:15.677Z,8.80
2023-02-27T14:41:33.553Z,10.00
2023-02-27T14:46:39.391Z,14.30
2023-02-27T14:49:29.346Z,1.00
2023-02-27T14:54:26.094Z,1.40
2023-02-27T14:56:58.791Z,14.00
2023-02-27T14:59:33.369Z,2.50
2023-02-27T15:02:04.423Z,3.20
2023-02-27T15:04:33.143Z,4.40
2023-02-27T15:07:01.038Z,1.00
2023-02-27T15:09:34.718Z,1.90
2023-02-27T15:12:04.269Z,3.10
2023-02-27T15:14:36.525Z,4.50
2023-02-27T15:17:14.821Z,6.20
2023-02-27T15:19:50.561Z,7.70
2023-02-27T15:22:37.990Z,20.10
2023-02-27T15:27:37.440Z,17.20
2023-02-27T15:30:05.012Z,11.60
2023-02-27T15:32:35.976Z,4.40
2023-02-27T15:35:06.104Z,5.10
2023-02-27T15:37:35.397Z,11.30
2023-02-27T15:40:02.854Z,20.50
2023-02-27T15:42:34.994Z,9.50
2023-02-27T15:45:04.161Z,10.30
2023-02-27T15:47:32.495Z,14.70
2023-02-27T15:50:32.175Z,10.70
2023-02-27T15:53:13.681Z,11.80
2023-02-27T15:55:46.007Z,12.40
2023-02-27T15:58:25.908Z,21.50
2023-02-27T16:01:02.750Z,14.10
2023-02-27T16:03:37.869Z,14.00
2023-02-27T16:06:19.130Z,13.30
2023-02-27T16:08:58.590Z,15.50
2023-02-27T16:11:31.175Z,29.10
2023-02-27T16:16:55.225Z,22.30
2023-02-27T16:19:31.395Z,11.30
2023-02-27T16:22:15.967Z,11.30
2023-02-27T16:27:28.383Z,12.60
2023-02-27T16:30:02.946Z,8.80
2023-02-27T16:32:41.988Z,8.60
2023-02-27T16:35:20.377Z,10.10
2023-02-27T16:40:24.614Z,9.20
2023-02-27T16:42:52.374Z,23.80
2023-02-27T16:45:25.198Z,11.20
2023-02-27T16:47:54.924Z,13.70
2023-02-27T16:50:24.660Z,13.50
2023-02-27T17:00:15.527Z,16.90
2023-02-27T17:05:10.635Z,17.70
2023-02-27T17:39:33.471Z,40.60
2023-02-27T18:21:21.399Z,29.50
2023-02-27T18:26:30.787Z,27.30
2023-02-27T18:29:00.369Z,40.30
2023-02-27T18:31:33.220Z,29.40
2023-02-27T18:34:01.003Z,30.50
2023-02-27T18:36:29.365Z,31.80
2023-02-27T18:48:47.028Z,33.40
2023-02-27T18:51:15.878Z,34.20
2023-02-27T18:53:48.097Z,34.90
2023-02-27T18:56:17.390Z,35.00
2023-02-27T18:58:44.991Z,43.20
2023-02-27T19:01:21.401Z,33.00
2023-02-27T19:21:06.392Z,35.30
2023-02-27T19:26:01.240Z,37.60
2023-02-27T19:50:40.316Z,39.20
2023-02-27T20:22:43.279Z,57.10
2023-02-27T20:25:10.784Z,39.70
2023-02-27T20:27:38.289Z,57.80
2023-02-27T21:07:15.798Z,61.70
2023-02-27T21:17:05.516Z,45.20
2023-02-27T21:29:22.275Z,64.00
2023-02-27T21:31:50.892Z,46.20
2023-02-27T21:34:21.376Z,46.70
2023-02-27T21:39:22.275Z,46.90
2023-02-27T21:44:18.878Z,47.60
2023-02-27T21:49:20.211Z,52.80
2023-02-27T21:54:15.981Z,48.60
2023-02-27T22:01:38.636Z,54.60
2023-02-27T22:04:05.951Z,66.20
2023-02-27T22:06:34.042Z,49.20
2023-02-27T22:09:05.002Z,49.50
2023-02-27T22:11:33.188Z,48.60
2023-02-27T22:21:25.186Z,50.00
2023-02-27T22:26:24.066Z,49.80
2023-02-27T22:28:53.318Z,50.00
2023-02-27T22:31:32.611Z,50.40
2023-02-27T22:34:08.675Z,50.70
2023-02-27T22:39:04.792Z,49.90
2023-02-27T22:41:34.909Z,51.70
2023-02-27T22:44:02.606Z,51.20
2023-02-27T22:46:42.353Z,53.00
2023-02-27T22:54:14.211Z,51.20
2023-02-27T23:01:37.377Z,51.60
2023-02-27T23:04:07.316Z,51.70
2023-02-27T23:06:37.466Z,51.70
2023-02-27T23:09:06.824Z,52.00
2023-02-27T23:18:58.038Z,52.30
2023-02-27T23:21:29.874Z,52.30
2023-02-27T23:28:56.290Z,52.80
2023-02-27T23:46:15.103Z,52.50
2023-02-27T23:48:42.967Z,52.10
2023-02-27T23:51:10.756Z,52.60
2023-02-27T23:53:39.246Z,53.10
2023-02-27T23:58:45.142Z,52.50
